Time;durP1;ratioP1;P1;durP2;ratioP2;P2;SDS_P1;SDS_P2;PMS_P1;PMS_P2;Temp;Humidity;BMP_temperature;BMP_pressure;BME280_temperature;BME280_humidity;BME280_pressure;Samples;Min_cycle;Max_cycle;Signal;HPM_P1;HPM_P2
2022/01/18 00:02:33;;;;;;;543.38;309.10;;;7.10;96.40;;;;;;5093757;28;20043;-77
2022/01/18 00:05:38;;;;;;;619.78;367.45;;;7.00;96.90;;;;;;5081362;28;20043;-77
2022/01/18 00:08:42;;;;;;;535.25;314.40;;;7.00;96.70;;;;;;5093635;28;20047;-77
2022/01/18 00:11:54;;;;;;;457.27;257.10;;;6.90;96.40;;;;;;5093844;28;20058;-77
2022/01/18 00:18:21;;;;;;;457.23;252.13;;;6.90;97.10;;;;;;5093095;28;20077;-77
2022/01/18 00:21:32;;;;;;;410.63;225.45;;;6.80;97.10;;;;;;5093350;28;20277;-77
2022/01/18 00:24:39;;;;;;;354.05;192.30;;;6.60;97.30;;;;;;5093005;28;20043;-77
2022/01/18 00:27:43;;;;;;;331.52;180.60;;;6.60;98.00;;;;;;5093257;28;20114;-77
2022/01/18 00:37:28;;;;;;;326.15;169.45;;;6.90;97.60;;;;;;5080715;28;20046;-77
2022/01/18 00:40:31;;;;;;;317.20;161.98;;;6.90;97.30;;;;;;5092987;28;20043;-77
2022/01/18 00:43:36;;;;;;;304.80;165.50;;;7.00;97.20;;;;;;5092531;28;20055;-77
2022/01/18 00:46:40;;;;;;;285.73;147.25;;;7.00;96.80;;;;;;5093051;28;20066;-77
2022/01/18 00:49:46;;;;;;;272.40;146.93;;;7.00;97.20;;;;;;5092520;28;20043;-77
2022/01/18 00:52:52;;;;;;;313.00;168.95;;;7.00;96.90;;;;;;5092696;28;20051;-77
2022/01/18 00:56:16;;;;;;;350.30;182.90;;;7.00;97.10;;;;;;5092708;28;20060;-77
2022/01/18 00:59:21;;;;;;;315.85;163.05;;;6.80;96.50;;;;;;5092577;28;20059;-77
2022/01/18 01:02:26;;;;;;;286.88;149.20;;;6.60;96.90;;;;;;5092423;28;20047;-77
2022/01/18 01:05:34;;;;;;;285.67;145.23;;;6.50;97.30;;;;;;5080028;28;20051;-77
2022/01/18 01:08:39;;;;;;;231.65;127.93;;;6.40;97.80;;;;;;5092346;28;20043;-77
2022/01/18 01:11:43;;;;;;;252.27;131.50;;;6.40;98.10;;;;;;5092266;28;20222;-77
2022/01/18 01:14:51;;;;;;;260.83;135.45;;;6.40;98.10;;;;;;5092746;28;20051;-77
2022/01/18 01:18:13;;;;;;;273.30;137.00;;;6.40;98.30;;;;;;5079860;28;20047;-77
2022/01/18 01:32:16;;;;;;;232.80;123.15;;;6.40;98.40;;;;;;5091874;28;20051;-77
2022/01/18 01:35:35;;;;;;;214.30;118.35;;;6.40;98.70;;;;;;5092098;28;20047;-77
2022/01/18 01:42:11;;;;;;;263.95;142.18;;;6.40;97.90;;;;;;5091846;28;20043;-77
2022/01/18 01:45:16;;;;;;;249.90;134.18;;;6.40;97.60;;;;;;5079338;28;20055;-77
2022/01/18 01:48:23;;;;;;;236.15;127.88;;;6.40;97.60;;;;;;5079464;28;20037;-77
2022/01/18 01:51:31;;;;;;;262.67;139.45;;;6.40;97.70;;;;;;5091593;28;20395;-77
2022/01/18 01:54:35;;;;;;;248.70;137.52;;;6.40;97.70;;;;;;5079041;28;20063;-77
2022/01/18 01:57:39;;;;;;;262.02;141.50;;;6.40;97.60;;;;;;5091716;28;20065;-77
2022/01/18 02:00:47;;;;;;;271.15;142.75;;;6.30;96.80;;;;;;5078964;28;20039;-77
2022/01/18 02:03:51;;;;;;;274.35;142.38;;;6.30;96.80;;;;;;5091087;28;20055;-77
2022/01/18 02:06:55;;;;;;;253.02;140.23;;;6.30;96.30;;;;;;5091458;28;20047;-77
2022/01/18 02:09:59;;;;;;;265.58;141.90;;;6.30;96.20;;;;;;5091196;28;20391;-77
2022/01/18 02:13:04;;;;;;;244.38;135.20;;;6.00;95.80;;;;;;5091427;28;20062;-77
2022/01/18 02:16:15;;;;;;;239.13;128.02;;;5.90;96.30;;;;;;5091577;28;20051;-77
2022/01/18 02:22:42;;;;;;;221.13;111.43;;;6.00;97.40;;;;;;5091285;28;20040;-77
2022/01/18 02:25:46;;;;;;;206.70;109.82;;;6.10;97.70;;;;;;5091503;28;20043;-77
2022/01/18 02:28:54;;;;;;;206.45;109.75;;;6.20;97.90;;;;;;5090965;28;20502;-77
2022/01/18 02:31:58;;;;;;;252.65;123.53;;;6.20;97.90;;;;;;5091115;28;20043;-79
2022/01/18 02:35:04;;;;;;;255.60;129.77;;;6.10;96.90;;;;;;5091400;28;20047;-77
2022/01/18 02:38:08;;;;;;;224.52;110.43;;;6.00;96.90;;;;;;5090925;28;20044;-77
2022/01/18 02:41:28;;;;;;;217.52;113.40;;;5.90;97.40;;;;;;5091157;28;20055;-76
2022/01/18 02:44:33;;;;;;;220.93;113.47;;;5.90;97.80;;;;;;5092629;28;20510;-77
2022/01/18 02:47:37;;;;;;;197.73;105.10;;;5.80;97.50;;;;;;5094981;28;20043;-79
2022/01/18 02:50:41;;;;;;;203.63;109.53;;;5.90;97.60;;;;;;5095147;28;20043;-79
2022/01/18 02:54:03;;;;;;;206.20;105.75;;;5.90;97.60;;;;;;5095289;28;20047;-79
2022/01/18 02:57:12;;;;;;;202.35;103.20;;;6.00;97.70;;;;;;5094895;28;20063;-79
2022/01/18 03:03:46;;;;;;;180.15;96.28;;;6.10;96.90;;;;;;5078072;28;20118;-79
2022/01/18 03:06:50;;;;;;;188.13;100.35;;;6.20;97.10;;;;;;5094896;28;20043;-79
2022/01/18 03:09:54;;;;;;;179.40;96.40;;;6.00;97.20;;;;;;5082473;28;20509;-79
2022/01/18 03:13:01;;;;;;;198.13;106.30;;;5.90;97.60;;;;;;5094611;28;20043;-79
2022/01/18 03:16:06;;;;;;;181.38;94.25;;;5.80;97.80;;;;;;5094954;28;20051;-79
2022/01/18 03:19:10;;;;;;;206.55;103.88;;;5.80;98.00;;;;;;5081998;28;20047;-79
2022/01/18 03:22:14;;;;;;;192.15;104.22;;;5.70;97.60;;;;;;5094453;28;20050;-79
2022/01/18 03:28:38;;;;;;;202.73;102.68;;;5.60;97.20;;;;;;5094389;28;20044;-79
2022/01/18 03:31:42;;;;;;;185.77;101.93;;;5.50;97.40;;;;;;5094370;28;20077;-79
2022/01/18 03:34:46;;;;;;;190.15;98.15;;;5.50;97.40;;;;;;5094459;28;20054;-79
2022/01/18 03:37:51;;;;;;;198.63;105.32;;;5.50;97.50;;;;;;5094366;28;20055;-79
2022/01/18 03:40:56;;;;;;;199.93;104.78;;;5.50;97.20;;;;;;5093861;28;20074;-79
2022/01/18 03:44:00;;;;;;;274.58;122.50;;;5.50;96.80;;;;;;5081652;28;20502;-79
2022/01/18 03:47:05;;;;;;;241.20;111.95;;;5.40;96.40;;;;;;5094283;28;20040;-79
2022/01/18 03:50:11;;;;;;;234.38;112.38;;;5.30;96.60;;;;;;5094114;28;20047;-79
2022/01/18 03:53:15;;;;;;;217.27;109.28;;;5.30;96.50;;;;;;5081590;28;20043;-79
2022/01/18 03:56:19;;;;;;;198.60;100.53;;;5.10;96.30;;;;;;5093688;28;20047;-79
2022/01/18 03:59:23;;;;;;;201.60;100.25;;;5.10;97.00;;;;;;5093878;28;20047;-79
2022/01/18 04:02:27;;;;;;;196.82;99.45;;;5.10;97.70;;;;;;5093677;28;20050;-79
2022/01/18 04:05:31;;;;;;;187.48;99.35;;;5.10;97.70;;;;;;5081024;28;20047;-79
2022/01/18 04:08:35;;;;;;;185.55;98.22;;;5.10;97.90;;;;;;5093567;28;20099;-79
2022/01/18 04:11:39;;;;;;;178.90;96.90;;;5.10;98.30;;;;;;5093630;28;20514;-79
2022/01/18 04:14:43;;;;;;;183.75;95.32;;;5.10;98.20;;;;;;5093742;28;20036;-79
2022/01/18 04:18:05;;;;;;;199.32;97.85;;;5.20;98.10;;;;;;5093718;28;20043;-79
2022/01/18 04:28:03;;;;;;;208.13;101.07;;;5.20;97.90;;;;;;5093171;28;20056;-79
2022/01/18 04:31:08;;;;;;;217.95;106.72;;;5.10;97.10;;;;;;5093355;28;20055;-79
2022/01/18 04:34:12;;;;;;;204.27;100.95;;;5.10;97.20;;;;;;5092846;28;20051;-79
2022/01/18 04:37:16;;;;;;;200.68;101.75;;;5.10;97.30;;;;;;5093269;28;20399;-79
2022/01/18 04:40:26;;;;;;;205.10;99.95;;;5.10;97.10;;;;;;5093062;28;20039;-79
2022/01/18 04:50:14;;;;;;;225.90;104.20;;;5.00;96.90;;;;;;5092561;28;20054;-79
2022/01/18 04:53:18;;;;;;;205.10;102.03;;;4.90;97.20;;;;;;5092873;28;20047;-79
2022/01/18 04:57:51;;;;;;;196.73;99.95;;;5.00;97.00;;;;;;5092912;28;20035;-79
2022/01/18 04:59:50;;;;;;;206.65;100.38;;;5.00;96.30;;;;;;5092779;28;20039;-79
2022/01/18 05:02:56;;;;;;;210.20;102.38;;;5.00;96.00;;;;;;5092692;28;20058;-79
2022/01/18 05:06:08;;;;;;;205.48;97.50;;;4.90;96.10;;;;;;5092256;28;20051;-79
2022/01/18 05:09:12;;;;;;;200.40;97.07;;;4.90;96.10;;;;;;5092611;28;20043;-79
2022/01/18 05:12:25;;;;;;;207.25;93.10;;;4.80;96.70;;;;;;5092340;28;20289;-79
2022/01/18 05:24:57;;;;;;;172.30;84.75;;;4.80;96.90;;;;;;5091912;28;20043;-79
2022/01/18 05:28:04;;;;;;;159.38;82.50;;;4.70;97.30;;;;;;5092075;28;20047;-79
2022/01/18 05:31:09;;;;;;;152.55;78.93;;;4.60;98.30;;;;;;5092093;28;20046;-79
2022/01/18 05:34:13;;;;;;;178.93;84.82;;;4.80;98.70;;;;;;5091568;28;20055;-79
2022/01/18 05:37:17;;;;;;;166.57;84.13;;;4.90;98.50;;;;;;5079746;28;20039;-79
2022/01/18 05:40:23;;;;;;;164.65;83.70;;;5.00;98.70;;;;;;5079446;28;20055;-79
2022/01/18 05:43:27;;;;;;;169.20;82.38;;;5.00;98.50;;;;;;5091752;28;20039;-79
2022/01/18 05:46:32;;;;;;;179.75;84.68;;;5.00;98.20;;;;;;5091707;28;20051;-79
2022/01/18 05:49:36;;;;;;;176.20;81.50;;;5.00;98.50;;;;;;5091796;28;20517;-79
2022/01/18 05:52:42;;;;;;;158.15;79.90;;;5.00;97.60;;;;;;5091474;28;20059;-79
2022/01/18 05:55:47;;;;;;;206.38;89.80;;;5.00;97.30;;;;;;5091756;28;20499;-79
2022/01/18 05:58:51;;;;;;;166.98;82.22;;;5.00;97.60;;;;;;5091597;28;20043;-79
2022/01/18 06:02:02;;;;;;;191.20;87.93;;;5.00;97.40;;;;;;5091408;28;20038;-79
2022/01/18 06:08:29;;;;;;;187.05;86.78;;;4.80;97.40;;;;;;5091611;28;20549;-79
2022/01/18 06:11:33;;;;;;;247.93;100.82;;;4.80;97.10;;;;;;5091467;28;20047;-79
2022/01/18 06:14:38;;;;;;;241.88;102.72;;;4.80;96.90;;;;;;5091643;28;20047;-80
2022/01/18 06:17:42;;;;;;;296.15;127.60;;;4.80;97.10;;;;;;5091164;28;20039;-74
2022/01/18 06:20:45;;;;;;;290.33;125.07;;;4.70;97.30;;;;;;5078942;28;20043;-73
2022/01/18 06:23:49;;;;;;;319.63;131.82;;;4.70;98.40;;;;;;5091204;28;20071;-73
2022/01/18 06:26:53;;;;;;;305.48;128.65;;;4.80;98.50;;;;;;5091406;28;20067;-73
2022/01/18 06:29:57;;;;;;;258.88;117.65;;;5.00;98.90;;;;;;5091367;28;20387;-75
2022/01/18 06:33:01;;;;;;;260.83;119.10;;;5.00;98.80;;;;;;5078163;28;20418;-76
2022/01/18 06:36:06;;;;;;;269.65;121.40;;;5.10;99.10;;;;;;5078384;28;20039;-76
2022/01/18 06:39:10;;;;;;;235.75;107.35;;;5.20;99.10;;;;;;5091094;28;20047;-76
2022/01/18 06:42:15;;;;;;;253.02;110.32;;;5.20;98.90;;;;;;5078770;28;20047;-75
2022/01/18 06:45:19;;;;;;;271.33;119.05;;;5.20;99.00;;;;;;5078405;28;20067;-76
2022/01/18 06:48:23;;;;;;;269.63;116.03;;;5.30;98.30;;;;;;5091390;28;20047;-77
2022/01/18 06:51:27;;;;;;;280.40;115.80;;;5.20;98.00;;;;;;5091243;28;20526;-77
2022/01/18 06:54:31;;;;;;;282.10;122.78;;;5.20;98.20;;;;;;5090887;28;20051;-76
2022/01/18 06:57:35;;;;;;;267.35;115.63;;;5.20;97.40;;;;;;5078475;28;20047;-77
2022/01/18 07:00:39;;;;;;;273.70;119.70;;;5.10;97.70;;;;;;5091162;28;20494;-78
2022/01/18 07:03:43;;;;;;;249.82;110.97;;;5.20;97.90;;;;;;5090718;28;20039;-77
2022/01/18 07:06:47;;;;;;;226.15;104.78;;;5.20;98.30;;;;;;5090946;28;20055;-77
2022/01/18 07:09:52;;;;;;;234.57;103.75;;;5.30;98.70;;;;;;5091116;28;20036;-77
2022/01/18 07:12:57;;;;;;;261.40;109.60;;;5.50;98.90;;;;;;5090504;28;20526;-76
2022/01/18 07:16:01;;;;;;;255.75;108.20;;;5.60;98.10;;;;;;5090488;28;20035;-75
2022/01/18 07:19:06;;;;;;;212.20;94.43;;;5.60;97.70;;;;;;5090817;28;20039;-75
2022/01/18 07:22:10;;;;;;;202.55;91.18;;;5.70;98.20;;;;;;5066660;28;20055;-74
2022/01/18 07:25:15;;;;;;;150.30;74.80;;;5.80;98.40;;;;;;5090569;28;20526;-74
2022/01/18 07:28:20;;;;;;;136.82;65.72;;;5.80;98.60;;;;;;5090419;28;20051;-72
2022/01/18 07:31:24;;;;;;;123.05;61.53;;;6.00;98.70;;;;;;5093415;28;20517;-73
2022/01/18 07:34:30;;;;;;;113.97;61.20;;;6.10;98.80;;;;;;5054083;28;20709;-73
2022/01/18 07:37:35;;;;;;;123.97;61.30;;;6.20;98.80;;;;;;5053822;28;20400;-72
2022/01/18 07:40:41;;;;;;;129.20;61.00;;;6.40;98.60;;;;;;5054168;28;20043;-72
2022/01/18 07:43:45;;;;;;;116.30;59.88;;;6.60;98.40;;;;;;5053845;28;20040;-70
2022/01/18 07:46:49;;;;;;;116.40;59.13;;;6.50;98.30;;;;;;5053905;28;20060;-72
2022/01/18 07:49:53;;;;;;;106.88;57.33;;;6.50;98.40;;;;;;5053749;28;20040;-73
2022/01/18 07:52:57;;;;;;;129.65;62.30;;;6.60;98.50;;;;;;5053728;28;20139;-71
2022/01/18 07:56:00;;;;;;;117.35;58.58;;;6.70;98.40;;;;;;5053659;28;20036;-70
2022/01/18 07:59:04;;;;;;;117.13;60.90;;;6.80;98.50;;;;;;5052990;28;20040;-72
2022/01/18 08:02:08;;;;;;;112.70;58.80;;;6.90;98.50;;;;;;5053587;28;20059;-71
2022/01/18 08:05:13;;;;;;;122.68;56.72;;;7.00;98.50;;;;;;5053271;28;20052;-72
2022/01/18 08:08:17;;;;;;;105.97;56.47;;;7.10;98.30;;;;;;5053331;28;20393;-71
2022/01/18 08:11:22;;;;;;;104.82;55.28;;;7.30;98.10;;;;;;5053331;28;20056;-71
2022/01/18 08:14:29;;;;;;;91.60;55.17;;;7.30;98.20;;;;;;5052848;28;20043;-73
2022/01/18 08:17:33;;;;;;;100.22;56.63;;;7.40;98.40;;;;;;5053419;28;20507;-72
2022/01/18 08:20:41;;;;;;;109.15;56.90;;;7.60;98.60;;;;;;5052945;28;20056;-72
2022/01/18 08:23:45;;;;;;;87.97;55.10;;;7.70;98.20;;;;;;5053189;28;20044;-73
2022/01/18 08:26:49;;;;;;;85.70;50.95;;;7.80;98.20;;;;;;5052977;28;20060;-75
2022/01/18 08:29:53;;;;;;;93.22;54.70;;;8.00;98.10;;;;;;5053050;28;20064;-77
2022/01/18 08:32:57;;;;;;;79.10;51.65;;;8.20;98.10;;;;;;5068743;28;20059;-78
2022/01/18 08:36:06;;;;;;;81.57;50.55;;;8.40;97.80;;;;;;5093239;28;20046;-72
2022/01/18 08:39:12;;;;;;;94.90;52.58;;;8.70;97.60;;;;;;5092971;28;20047;-71
2022/01/18 08:42:16;;;;;;;94.82;55.47;;;8.90;97.00;;;;;;5092898;28;20487;-72
2022/01/18 08:45:19;;;;;;;74.15;50.45;;;9.20;96.40;;;;;;5080420;28;20122;-72
2022/01/18 08:48:24;;;;;;;78.85;48.70;;;9.40;95.70;;;;;;5093015;28;20039;-74
2022/01/18 08:51:28;;;;;;;69.53;47.00;;;9.70;95.60;;;;;;5092589;28;20043;-72
2022/01/18 08:54:34;;;;;;;67.40;44.10;;;10.00;95.30;;;;;;5080216;28;20055;-72
2022/01/18 08:57:38;;;;;;;74.65;45.53;;;10.20;95.00;;;;;;5092475;28;20045;-72
2022/01/18 09:00:42;;;;;;;73.32;46.60;;;10.40;94.40;;;;;;5092596;28;20043;-71
2022/01/18 09:03:45;;;;;;;76.43;49.10;;;10.70;94.00;;;;;;5091983;28;20043;-71
2022/01/18 09:06:51;;;;;;;78.60;48.50;;;10.80;93.40;;;;;;5092230;28;20067;-73
2022/01/18 09:10:03;;;;;;;77.78;48.58;;;11.10;93.20;;;;;;5092099;28;20051;-72
2022/01/18 09:13:08;;;;;;;80.82;52.45;;;11.30;92.60;;;;;;5091837;28;20047;-76
2022/01/18 09:16:12;;;;;;;105.53;67.10;;;11.50;92.50;;;;;;5079225;28;20039;-73
2022/01/18 09:19:16;;;;;;;129.80;79.50;;;11.60;92.40;;;;;;5091885;28;20501;-72
2022/01/18 09:22:21;;;;;;;164.70;96.00;;;11.70;92.20;;;;;;5091836;28;20047;-72
2022/01/18 09:25:27;;;;;;;134.82;87.88;;;11.60;92.40;;;;;;5091848;28;20055;-71
2022/01/18 09:28:34;;;;;;;132.15;87.57;;;11.60;92.70;;;;;;5092202;28;20031;-72
2022/01/18 09:31:39;;;;;;;129.82;89.35;;;11.60;92.80;;;;;;5091862;28;20051;-72
2022/01/18 09:34:43;;;;;;;127.72;83.78;;;11.60;92.20;;;;;;5092031;28;20075;-72
2022/01/18 09:37:48;;;;;;;131.43;84.75;;;11.60;92.60;;;;;;5091776;28;20063;-73
2022/01/18 09:40:53;;;;;;;123.43;81.28;;;11.70;91.90;;;;;;5079325;28;20059;-72
2022/01/18 09:43:58;;;;;;;118.15;78.32;;;11.70;91.80;;;;;;5091435;28;20204;-73
2022/01/18 09:47:03;;;;;;;106.32;72.63;;;11.90;91.70;;;;;;5091723;28;20062;-73
2022/01/18 09:50:09;;;;;;;125.68;84.40;;;12.20;91.60;;;;;;5091710;28;20054;-72
2022/01/18 09:53:14;;;;;;;115.40;78.15;;;12.40;91.00;;;;;;5091175;28;20047;-73
2022/01/18 09:56:18;;;;;;;115.55;78.20;;;12.60;91.00;;;;;;5091442;28;20062;-73
2022/01/18 09:59:23;;;;;;;127.43;76.80;;;12.80;91.10;;;;;;5079162;28;20094;-73
2022/01/18 10:02:27;;;;;;;117.38;79.10;;;13.10;90.80;;;;;;5090671;28;20039;-74
2022/01/18 10:05:34;;;;;;;110.15;74.30;;;13.40;90.50;;;;;;5090118;28;20055;-73
2022/01/18 10:08:41;;;;;;;117.15;76.63;;;13.60;90.00;;;;;;5091382;28;20190;-73
2022/01/18 10:12:12;;;;;;;100.28;69.40;;;13.80;89.80;;;;;;5091220;28;20498;-72
2022/01/18 10:15:17;;;;;;;102.60;69.75;;;14.00;89.00;;;;;;5091429;28;20392;-72
2022/01/18 10:18:42;;;;;;;102.05;70.45;;;14.30;88.70;;;;;;5091511;28;20047;-74
2022/01/18 10:21:49;;;;;;;106.00;71.93;;;14.40;87.70;;;;;;5091342;28;20051;-78
2022/01/18 10:24:53;;;;;;;97.63;60.63;;;14.60;87.10;;;;;;5090913;28;20047;-72
2022/01/18 10:27:57;;;;;;;83.63;52.28;;;14.70;86.60;;;;;;5078267;28;20051;-71
2022/01/18 10:31:22;;;;;;;85.85;49.53;;;14.90;86.00;;;;;;5078752;28;20047;-71
2022/01/18 10:37:43;;;;;;;67.72;44.17;;;15.10;84.40;;;;;;5091130;28;20035;-74
2022/01/18 10:40:47;;;;;;;67.00;45.55;;;15.30;83.10;;;;;;5078876;28;20088;-72
2022/01/18 10:44:13;;;;;;;41.03;28.80;;;15.40;83.20;;;;;;5090877;28;20399;-72
2022/01/18 10:47:18;;;;;;;40.33;27.00;;;15.50;79.30;;;;;;5091167;28;20052;-73
2022/01/18 10:50:22;;;;;;;41.72;29.15;;;15.60;79.00;;;;;;5091007;28;20047;-74
2022/01/18 10:53:26;;;;;;;38.03;24.67;;;15.60;77.80;;;;;;5090656;28;20384;-73
2022/01/18 10:56:42;;;;;;;35.13;25.80;;;15.70;77.20;;;;;;5078359;28;20047;-73
2022/01/18 10:59:47;;;;;;;44.78;29.30;;;15.70;77.20;;;;;;5090756;28;20519;-71
2022/01/18 11:02:53;;;;;;;42.47;28.80;;;15.80;77.50;;;;;;5090284;28;20047;-72
2022/01/18 11:05:57;;;;;;;58.60;42.42;;;15.80;77.90;;;;;;5080708;28;20047;-74
2022/01/18 11:09:12;;;;;;;57.13;37.28;;;15.80;78.10;;;;;;5094754;28;20034;-78
2022/01/18 11:12:19;;;;;;;43.33;27.48;;;15.70;77.40;;;;;;5082421;28;20505;-76
2022/01/18 11:15:26;;;;;;;32.00;21.90;;;15.70;77.90;;;;;;5094782;28;20058;-74
2022/01/18 11:18:36;;;;;;;29.27;20.40;;;15.60;74.90;;;;;;5094217;28;20052;-76
2022/01/18 11:21:40;;;;;;;30.25;20.20;;;15.60;76.40;;;;;;5094319;28;20043;-73
2022/01/18 11:24:47;;;;;;;26.20;17.52;;;15.60;75.60;;;;;;5094212;28;20051;-74
2022/01/18 11:27:53;;;;;;;26.65;18.60;;;15.60;74.60;;;;;;5094086;28;20054;-74
2022/01/18 11:30:57;;;;;;;23.85;17.35;;;15.60;73.90;;;;;;5082040;28;20043;-76
2022/01/18 11:34:03;;;;;;;25.60;16.05;;;15.50;73.60;;;;;;5081444;28;20063;-77
2022/01/18 11:37:29;;;;;;;25.30;14.80;;;15.50;72.90;;;;;;5094651;28;20055;-70
2022/01/18 11:40:53;;;;;;;19.42;14.85;;;15.40;72.10;;;;;;5094226;28;20051;-72
2022/01/18 11:44:09;;;;;;;25.75;15.60;;;15.30;71.50;;;;;;5093132;28;20063;-74
2022/01/18 11:47:27;;;;;;;21.67;14.60;;;15.30;72.20;;;;;;5093997;28;20059;-73
2022/01/18 11:50:33;;;;;;;23.05;17.13;;;15.20;70.50;;;;;;5081603;28;20055;-73
2022/01/18 11:56:57;;;;;;;18.95;14.13;;;15.00;72.20;;;;;;5094031;28;20055;-74
2022/01/18 12:00:07;;;;;;;20.10;13.70;;;14.90;72.00;;;;;;5093882;28;20035;-74
2022/01/18 12:03:30;;;;;;;17.13;11.88;;;14.90;72.50;;;;;;5093683;28;20043;-71
2022/01/18 12:06:46;;;;;;;18.80;11.38;;;14.80;72.10;;;;;;5093562;28;20059;-72
2022/01/18 12:09:50;;;;;;;15.73;10.52;;;14.80;70.30;;;;;;5093434;28;20110;-73
2022/01/18 12:12:56;;;;;;;15.38;11.05;;;14.80;69.40;;;;;;5093251;28;20047;-72
2022/01/18 12:16:03;;;;;;;20.17;9.95;;;14.80;69.50;;;;;;5092794;28;20039;-71
2022/01/18 12:19:08;;;;;;;11.88;8.50;;;14.70;68.70;;;;;;5093461;28;20062;-71
2022/01/18 12:22:13;;;;;;;18.63;8.85;;;14.70;68.50;;;;;;5093020;28;20043;-71
2022/01/18 12:25:36;;;;;;;9.30;5.93;;;14.70;67.50;;;;;;5093339;28;20051;-72
2022/01/18 12:28:55;;;;;;;10.90;7.07;;;14.70;63.40;;;;;;5093182;28;20040;-73
2022/01/18 12:32:18;;;;;;;8.98;6.05;;;14.70;64.50;;;;;;5093120;28;20388;-72
2022/01/18 12:35:23;;;;;;;16.17;6.85;;;14.70;65.60;;;;;;5093380;28;20043;-73
2022/01/18 12:38:28;;;;;;;10.43;7.25;;;14.70;64.20;;;;;;5093180;28;20071;-73
2022/01/18 12:41:48;;;;;;;11.40;8.48;;;14.70;64.10;;;;;;5093221;28;20387;-73
2022/01/18 12:44:52;;;;;;;12.85;8.65;;;14.70;64.80;;;;;;5080529;28;20055;-73
2022/01/18 12:48:00;;;;;;;11.50;8.05;;;14.70;65.30;;;;;;5092983;28;20051;-73
2022/01/18 12:51:08;;;;;;;15.13;9.00;;;14.70;65.40;;;;;;5093092;28;20043;-73
2022/01/18 12:54:12;;;;;;;16.23;9.05;;;14.70;65.10;;;;;;5093009;28;20043;-72
2022/01/18 12:57:23;;;;;;;13.77;8.63;;;14.70;65.20;;;;;;5092867;28;20047;-72
2022/01/18 13:00:27;;;;;;;11.47;8.10;;;14.60;65.10;;;;;;5080345;28;20047;-73
2022/01/18 13:03:44;;;;;;;14.52;8.63;;;14.60;65.20;;;;;;5092836;28;20293;-72
2022/01/18 13:06:49;;;;;;;14.45;8.18;;;14.70;65.10;;;;;;5092345;28;20051;-73
2022/01/18 13:10:03;;;;;;;14.23;9.40;;;14.70;66.20;;;;;;5092509;28;20051;-73
2022/01/18 13:13:09;;;;;;;11.80;8.55;;;14.60;66.60;;;;;;5092556;28;20046;-74
2022/01/18 13:23:01;;;;;;;12.82;8.30;;;14.60;66.90;;;;;;5091874;28;20502;-71
2022/01/18 13:26:06;;;;;;;13.85;8.07;;;14.60;65.90;;;;;;5092184;28;20055;-71
2022/01/18 13:29:22;;;;;;;16.13;8.82;;;14.60;65.70;;;;;;5090802;28;20387;-71
2022/01/18 13:32:33;;;;;;;16.33;9.48;;;14.60;65.90;;;;;;5090305;28;20063;-71
2022/01/18 13:35:42;;;;;;;12.32;7.93;;;14.60;66.20;;;;;;5091538;28;20066;-70
2022/01/18 13:38:46;;;;;;;15.90;8.70;;;14.50;64.70;;;;;;5091643;28;20055;-71
2022/01/18 13:41:50;;;;;;;14.23;8.45;;;14.50;65.50;;;;;;5078985;28;20051;-73
2022/01/18 13:45:16;;;;;;;17.50;9.07;;;14.50;65.60;;;;;;5091759;28;20047;-70
2022/01/18 13:48:31;;;;;;;11.68;8.32;;;14.50;64.80;;;;;;5091815;28;20071;-77
2022/01/18 13:51:36;;;;;;;13.77;8.93;;;14.40;65.10;;;;;;5091827;28;20043;-75
2022/01/18 13:54:47;;;;;;;14.80;9.15;;;14.40;65.50;;;;;;5091600;28;20494;-73
2022/01/18 13:57:56;;;;;;;;;;;14.40;66.10;;;;;;5092224;28;20051;-72
2022/01/18 14:01:24;;;;;;;14.90;8.88;;;14.40;66.10;;;;;;5091538;28;19915;-74
2022/01/18 14:04:29;;;;;;;14.07;8.95;;;14.40;66.80;;;;;;5091033;28;20039;-73
2022/01/18 14:07:33;;;;;;;18.80;10.90;;;14.40;67.10;;;;;;5078889;28;20443;-74
2022/01/18 14:10:37;;;;;;;16.40;10.45;;;14.30;67.30;;;;;;5091395;28;20039;-74
2022/01/18 14:13:41;;;;;;;19.30;11.20;;;14.30;68.10;;;;;;5091577;28;20051;-73
2022/01/18 14:16:53;;;;;;;17.55;10.85;;;14.30;67.80;;;;;;5091473;28;20043;-73
2022/01/18 14:20:08;;;;;;;14.88;10.23;;;14.30;67.40;;;;;;5091242;28;20046;-73
2022/01/18 14:23:18;;;;;;;18.40;10.10;;;14.20;68.10;;;;;;5091141;28;20378;-73
2022/01/18 14:26:25;;;;;;;16.27;10.30;;;14.30;67.50;;;;;;5091150;28;20103;-73
2022/01/18 14:29:31;;;;;;;15.73;10.00;;;14.20;67.30;;;;;;5091120;28;20506;-73
2022/01/18 14:32:41;;;;;;;19.05;11.68;;;14.20;66.10;;;;;;5090893;28;20404;-73
2022/01/18 14:35:45;;;;;;;18.75;10.90;;;14.20;66.30;;;;;;5091134;28;20047;-73
2022/01/18 14:39:06;;;;;;;15.57;9.73;;;14.20;65.30;;;;;;5091920;28;20050;-73
2022/01/18 14:42:14;;;;;;;21.58;10.48;;;14.20;65.40;;;;;;5095285;28;20043;-73
2022/01/18 14:48:30;;;;;;;16.00;9.25;;;14.10;65.10;;;;;;5082830;28;20525;-72
2022/01/18 14:51:34;;;;;;;14.98;8.90;;;14.10;64.90;;;;;;5095082;28;20055;-73
2022/01/18 14:54:38;;;;;;;15.15;10.18;;;14.10;65.40;;;;;;5095387;28;20043;-73
2022/01/18 14:57:43;;;;;;;17.77;10.18;;;14.10;65.60;;;;;;5094847;28;20043;-73
2022/01/18 15:00:47;;;;;;;19.83;11.18;;;14.10;65.20;;;;;;5095012;28;20050;-73
2022/01/18 15:03:52;;;;;;;16.02;9.95;;;14.10;65.90;;;;;;5082666;28;20426;-72
2022/01/18 15:06:58;;;;;;;20.92;12.43;;;14.10;66.10;;;;;;5094434;28;20051;-72
2022/01/18 15:10:06;;;;;;;20.17;10.75;;;14.10;66.00;;;;;;5094759;28;20059;-72
2022/01/18 15:13:10;;;;;;;11.55;7.75;;;14.10;65.60;;;;;;5094292;28;20055;-74
2022/01/18 15:16:14;;;;;;;16.73;8.52;;;14.20;65.10;;;;;;5094332;28;20503;-71
2022/01/18 15:19:18;;;;;;;12.27;8.05;;;14.20;66.20;;;;;;5094554;28;20051;-73
2022/01/18 15:22:22;;;;;;;16.48;9.43;;;14.20;66.30;;;;;;5094299;28;20399;-72
2022/01/18 15:25:26;;;;;;;15.73;10.18;;;14.20;66.90;;;;;;5093930;28;20051;-72
2022/01/18 15:28:31;;;;;;;19.65;8.70;;;14.20;66.90;;;;;;5093781;28;20055;-73
2022/01/18 15:31:35;;;;;;;16.02;9.68;;;14.20;66.50;;;;;;5081485;28;20203;-73
2022/01/18 15:34:41;;;;;;;15.38;9.52;;;14.20;66.90;;;;;;5094027;28;20055;-73
2022/01/18 15:37:45;;;;;;;20.92;11.85;;;14.10;66.80;;;;;;5093792;28;20047;-74
2022/01/18 15:40:50;;;;;;;20.75;10.70;;;14.10;67.30;;;;;;5093715;28;20121;-74
2022/01/18 15:43:54;;;;;;;18.83;10.13;;;14.00;67.40;;;;;;5081235;28;20039;-75
2022/01/18 15:46:58;;;;;;;21.02;10.80;;;14.00;68.00;;;;;;5081131;28;20051;-74
2022/01/18 15:50:04;;;;;;;17.88;9.77;;;13.90;68.10;;;;;;5093748;28;20043;-74
2022/01/18 15:53:10;;;;;;;19.17;11.43;;;13.90;68.60;;;;;;5093934;28;20063;-74
2022/01/18 15:56:18;;;;;;;19.58;11.07;;;13.90;68.80;;;;;;5081180;28;20043;-73
2022/01/18 15:59:21;;;;;;;15.85;10.98;;;13.90;69.20;;;;;;5081209;28;20051;-73
2022/01/18 16:02:26;;;;;;;16.23;11.25;;;13.80;69.60;;;;;;5093395;28;20047;-74
2022/01/18 16:05:31;;;;;;;19.92;11.20;;;13.70;70.10;;;;;;5093278;28;20498;-75
2022/01/18 16:08:36;;;;;;;28.50;17.90;;;13.70;70.70;;;;;;5093216;28;20039;-74
2022/01/18 16:11:40;;;;;;;24.65;15.30;;;13.70;71.20;;;;;;5080420;28;20039;-75
2022/01/18 16:14:44;;;;;;;31.20;16.67;;;13.60;71.70;;;;;;5093200;28;20071;-75
2022/01/18 16:17:48;;;;;;;33.03;18.58;;;13.50;72.00;;;;;;5068576;28;20051;-75
2022/01/18 16:20:53;;;;;;;38.72;19.80;;;13.50;72.30;;;;;;5092917;28;20039;-75
2022/01/18 16:23:57;;;;;;;44.65;24.75;;;13.50;72.70;;;;;;5093161;28;20047;-75
2022/01/18 16:27:00;;;;;;;63.25;31.27;;;13.30;73.10;;;;;;5080505;28;20050;-75
2022/01/18 16:30:06;;;;;;;46.83;25.13;;;13.20;73.10;;;;;;5080318;28;20039;-75
2022/01/18 16:33:10;;;;;;;44.30;23.58;;;13.20;73.30;;;;;;5092425;28;20062;-74
2022/01/18 16:36:15;;;;;;;37.50;19.35;;;13.10;73.10;;;;;;5091586;28;20043;-72
2022/01/18 16:39:19;;;;;;;45.00;20.50;;;13.20;73.20;;;;;;5092182;28;20055;-73
2022/01/18 16:42:24;;;;;;;42.45;23.75;;;13.10;73.40;;;;;;5092468;28;20050;-73
2022/01/18 16:45:28;;;;;;;62.88;33.33;;;13.10;73.70;;;;;;5078093;28;20047;-72
2022/01/18 16:48:32;;;;;;;60.40;28.77;;;12.90;72.70;;;;;;5090592;28;20058;-72
2022/01/18 16:51:39;;;;;;;72.60;39.63;;;12.90;74.20;;;;;;5091658;28;20521;-70
2022/01/18 16:54:43;;;;;;;65.28;37.38;;;12.80;74.20;;;;;;5091719;28;20047;-69
2022/01/18 16:57:47;;;;;;;90.15;53.17;;;12.60;74.90;;;;;;5091732;28;20051;-73
2022/01/18 17:00:51;;;;;;;93.85;60.55;;;12.50;72.90;;;;;;5068278;28;20052;-70
2022/01/18 17:03:55;;;;;;;98.03;54.85;;;12.40;72.80;;;;;;5091139;28;20391;-71